createdAt,value
2023-01-27T00:04:37.909Z,1.48
2023-01-27T00:09:44.389Z,1.16
2023-01-27T00:14:48.472Z,0.99
2023-01-27T00:19:53.182Z,0.89
2023-01-27T00:24:58.549Z,1.30
2023-01-27T00:30:04.785Z,1.00
2023-01-27T00:35:10.147Z,0.82
2023-01-27T00:40:18.061Z,0.72
2023-01-27T00:45:39.401Z,0.79
2023-01-27T00:50:44.504Z,1.09
2023-01-27T00:55:50.239Z,0.79
2023-01-27T01:00:55.342Z,0.68
2023-01-27T01:06:02.361Z,0.87
2023-01-27T01:11:09.723Z,0.93
2023-01-27T01:16:16.071Z,1.36
2023-01-27T01:21:22.600Z,1.53
2023-01-27T01:26:30.341Z,1.50
2023-01-27T01:31:34.616Z,1.34
2023-01-27T01:36:39.051Z,1.22
2023-01-27T01:41:44.830Z,1.05
2023-01-27T01:46:49.954Z,0.63
2023-01-27T01:51:58.355Z,0.59
2023-01-27T01:57:07.492Z,0.80
2023-01-27T02:02:15.660Z,1.19
2023-01-27T02:07:26.757Z,1.37
2023-01-27T02:12:32.872Z,1.31
2023-01-27T02:17:37.186Z,1.46
2023-01-27T02:22:51.053Z,1.41
2023-01-27T02:27:58.800Z,1.46
2023-01-27T02:33:03.773Z,1.21
2023-01-27T02:38:10.883Z,1.10
2023-01-27T02:43:16.474Z,1.33
2023-01-27T02:48:20.788Z,1.27
2023-01-27T02:53:25.274Z,1.28
2023-01-27T02:58:31.151Z,1.43
2023-01-27T03:03:47.382Z,1.27
2023-01-27T03:08:57.232Z,1.36
2023-01-27T03:14:03.079Z,1.40
2023-01-27T03:19:07.519Z,1.04
2023-01-27T03:24:11.512Z,1.04
2023-01-27T03:29:34.733Z,0.66
2023-01-27T03:34:39.257Z,0.70
2023-01-27T03:40:10.338Z,0.96
2023-01-27T03:45:33.546Z,1.29
2023-01-27T03:50:43.353Z,1.28
2023-01-27T03:55:48.073Z,1.49
2023-01-27T04:00:56.428Z,1.50
2023-01-27T04:06:22.305Z,1.59
2023-01-27T04:11:49.568Z,1.52
2023-01-27T04:16:57.935Z,1.47
2023-01-27T04:22:02.693Z,1.51
2023-01-27T04:27:09.163Z,1.41
2023-01-27T04:32:15.319Z,1.42
2023-01-27T04:37:19.272Z,1.32
2023-01-27T04:42:23.270Z,1.12
2023-01-27T04:47:28.732Z,1.10
2023-01-27T04:52:32.711Z,0.99
2023-01-27T04:57:36.998Z,0.96
2023-01-27T05:02:42.637Z,0.87
2023-01-27T05:07:48.212Z,0.62
2023-01-27T05:12:52.450Z,0.88
2023-01-27T05:17:58.410Z,1.06
2023-01-27T05:23:16.701Z,1.08
2023-01-27T05:28:20.699Z,1.42
2023-01-27T05:33:26.332Z,1.71
2023-01-27T05:38:31.119Z,1.57
2023-01-27T05:43:38.792Z,1.52
2023-01-27T05:48:45.611Z,1.55
2023-01-27T05:53:50.453Z,1.23
2023-01-27T05:58:55.320Z,0.99
2023-01-27T06:04:01.896Z,0.78
2023-01-27T06:09:06.133Z,0.99
2023-01-27T06:14:10.341Z,1.42
2023-01-27T06:19:15.895Z,1.54
2023-01-27T06:24:20.004Z,1.75
2023-01-27T06:29:25.183Z,1.38
2023-01-27T06:34:31.041Z,1.75
2023-01-27T06:39:35.565Z,1.84
2023-01-27T06:44:39.562Z,1.56
2023-01-27T06:49:44.900Z,1.52
2023-01-27T06:54:48.921Z,1.29
2023-01-27T06:59:53.221Z,1.36
2023-01-27T07:05:01.473Z,1.27
2023-01-27T07:10:06.771Z,1.46
2023-01-27T07:15:11.961Z,1.42
2023-01-27T07:20:18.573Z,1.36
2023-01-27T07:25:23.494Z,1.49
2023-01-27T07:30:28.250Z,1.45
2023-01-27T07:35:34.375Z,1.67
2023-01-27T07:40:39.017Z,1.80
2023-01-27T07:45:48.912Z,1.74
2023-01-27T07:50:54.664Z,1.54
2023-01-27T07:56:00.753Z,1.80
2023-01-27T08:01:07.168Z,2.03
2023-01-27T08:06:14.609Z,2.02
2023-01-27T08:11:20.392Z,2.00
2023-01-27T08:16:25.313Z,1.99
2023-01-27T08:21:33.145Z,2.06
2023-01-27T08:26:37.193Z,1.74
2023-01-27T08:31:41.853Z,1.97
2023-01-27T08:36:47.532Z,1.96
2023-01-27T08:41:51.629Z,1.85
2023-01-27T08:46:55.742Z,1.64
2023-01-27T08:52:01.210Z,1.76
2023-01-27T08:57:05.507Z,2.27
2023-01-27T09:02:14.576Z,2.36
2023-01-27T09:07:20.489Z,2.71
2023-01-27T09:12:24.783Z,2.93
2023-01-27T09:17:29.641Z,2.61
2023-01-27T09:22:36.670Z,2.03
2023-01-27T09:27:42.684Z,1.87
2023-01-27T09:32:47.316Z,1.76
2023-01-27T09:37:56.800Z,1.91
2023-01-27T09:43:20.971Z,2.27
2023-01-27T09:48:41.619Z,1.99
2023-01-27T09:54:17.326Z,1.92
2023-01-27T09:59:35.110Z,2.26
2023-01-27T10:05:03.849Z,2.30
2023-01-27T10:10:27.511Z,2.20
2023-01-27T10:15:56.836Z,2.28
2023-01-27T10:21:10.751Z,2.07
2023-01-27T10:26:29.449Z,2.03
2023-01-27T10:31:38.438Z,1.86
2023-01-27T10:36:48.513Z,2.05
2023-01-27T10:42:07.491Z,2.11
2023-01-27T10:47:20.581Z,2.29
2023-01-27T10:52:29.621Z,2.13
2023-01-27T10:57:41.695Z,2.23
2023-01-27T11:02:56.095Z,2.34
2023-01-27T11:08:08.809Z,2.10
2023-01-27T11:13:17.475Z,2.45
2023-01-27T11:18:24.540Z,2.51
2023-01-27T11:23:31.509Z,2.29
2023-01-27T11:28:43.875Z,1.97
2023-01-27T11:34:03.854Z,1.94
2023-01-27T11:39:07.956Z,1.88
2023-01-27T11:44:21.601Z,2.04
2023-01-27T11:49:29.241Z,2.10
2023-01-27T11:54:38.786Z,1.88
2023-01-27T11:59:45.628Z,1.66
2023-01-27T12:04:56.576Z,1.82
2023-01-27T12:10:01.128Z,2.00
2023-01-27T12:15:15.809Z,1.88
2023-01-27T12:20:37.332Z,1.70
2023-01-27T12:25:47.086Z,1.61
2023-01-27T12:30:55.606Z,1.60
2023-01-27T12:36:02.217Z,1.57
2023-01-27T12:41:08.946Z,1.65
2023-01-27T12:46:22.630Z,1.96
2023-01-27T12:51:41.308Z,1.99
2023-01-27T12:56:45.584Z,2.08
2023-01-27T13:02:02.997Z,2.25
2023-01-27T13:07:15.682Z,2.58
2023-01-27T13:12:22.505Z,2.24
2023-01-27T13:17:37.796Z,2.14
2023-01-27T13:22:47.648Z,2.14
2023-01-27T13:27:56.037Z,1.88
2023-01-27T13:33:23.550Z,2.09
2023-01-27T13:38:39.565Z,1.93
2023-01-27T13:43:54.611Z,2.13
2023-01-27T13:49:05.001Z,2.02
2023-01-27T13:54:13.660Z,1.86
2023-01-27T13:59:37.012Z,2.37
2023-01-27T14:05:19.742Z,1.92
2023-01-27T14:10:32.998Z,1.97
2023-01-27T14:15:50.210Z,1.98
2023-01-27T14:21:09.509Z,2.08
2023-01-27T14:26:31.831Z,2.01
2023-01-27T14:31:43.653Z,1.78
2023-01-27T14:36:56.931Z,1.89
2023-01-27T14:42:10.328Z,2.05
2023-01-27T14:47:24.899Z,2.15
2023-01-27T14:52:42.209Z,1.95
2023-01-27T14:57:56.971Z,1.97
2023-01-27T15:03:23.115Z,1.92
2023-01-27T15:08:39.937Z,1.86
2023-01-27T15:13:58.207Z,1.88
2023-01-27T15:19:52.631Z,1.86
2023-01-27T15:25:09.803Z,1.90
2023-01-27T15:30:24.064Z,2.05
2023-01-27T15:35:36.689Z,2.14
2023-01-27T15:41:19.264Z,1.96
2023-01-27T15:46:35.080Z,1.58
2023-01-27T15:51:40.074Z,1.37
2023-01-27T15:56:50.931Z,1.58
2023-01-27T16:02:29.258Z,1.37
2023-01-27T16:07:37.993Z,1.51
2023-01-27T16:12:48.005Z,1.23
2023-01-27T16:18:03.456Z,1.43
2023-01-27T16:23:14.779Z,1.82
2023-01-27T16:28:22.630Z,1.99
2023-01-27T16:33:32.951Z,2.17
2023-01-27T16:38:42.635Z,2.12
2023-01-27T16:43:52.465Z,2.26
2023-01-27T16:48:59.988Z,1.80
2023-01-27T16:54:19.726Z,1.83
2023-01-27T16:59:28.423Z,1.57
2023-01-27T17:04:34.159Z,1.61
2023-01-27T17:09:43.395Z,1.45
2023-01-27T17:14:48.560Z,1.01
2023-01-27T17:20:04.679Z,0.83
2023-01-27T17:25:17.406Z,0.65
2023-01-27T17:30:25.222Z,0.54
2023-01-27T17:35:34.573Z,0.46
2023-01-27T17:40:40.651Z,0.83
2023-01-27T17:45:50.170Z,0.91
2023-01-27T17:50:55.530Z,1.15
2023-01-27T17:56:00.123Z,1.18
2023-01-27T18:01:04.546Z,1.48
2023-01-27T18:06:14.953Z,1.52
2023-01-27T18:11:31.100Z,2.22
2023-01-27T18:16:35.709Z,1.59
2023-01-27T18:21:41.633Z,1.51
2023-01-27T18:26:48.924Z,1.48
2023-01-27T18:31:56.196Z,1.37
2023-01-27T18:37:07.117Z,1.29
2023-01-27T18:42:15.532Z,1.35
2023-01-27T18:47:35.798Z,1.74
2023-01-27T18:52:42.196Z,1.39
2023-01-27T18:57:47.008Z,1.10
2023-01-27T19:02:54.187Z,1.14
2023-01-27T19:08:00.755Z,1.29
2023-01-27T19:13:06.125Z,1.34
2023-01-27T19:18:17.317Z,1.29
2023-01-27T19:23:26.748Z,1.22
2023-01-27T19:28:34.645Z,0.78
2023-01-27T19:33:43.167Z,0.76
2023-01-27T19:38:51.064Z,0.61
2023-01-27T19:43:57.183Z,0.52
2023-01-27T19:49:01.245Z,0.62
2023-01-27T19:54:13.118Z,0.52
2023-01-27T19:59:17.404Z,0.53
2023-01-27T20:04:24.879Z,0.56
2023-01-27T20:09:31.692Z,0.84
2023-01-27T20:14:37.149Z,1.09
2023-01-27T20:19:41.972Z,1.36
2023-01-27T20:24:47.602Z,1.48
2023-01-27T20:29:54.575Z,1.46
2023-01-27T20:34:59.549Z,1.68
2023-01-27T20:40:06.717Z,1.33
2023-01-27T20:45:13.482Z,1.34
2023-01-27T20:50:18.524Z,1.47
2023-01-27T20:55:24.301Z,1.46
2023-01-27T21:00:30.098Z,1.66
2023-01-27T21:05:34.585Z,1.27
2023-01-27T21:10:41.580Z,1.46
2023-01-27T21:15:48.539Z,1.36
2023-01-27T21:20:55.591Z,1.27
2023-01-27T21:26:05.161Z,1.11
2023-01-27T21:31:12.352Z,1.29
2023-01-27T21:36:19.621Z,1.42
2023-01-27T21:41:40.475Z,1.42
2023-01-27T21:46:45.285Z,1.50
2023-01-27T21:51:50.748Z,1.46
2023-01-27T21:57:01.749Z,1.33
2023-01-27T22:02:07.266Z,1.81
2023-01-27T22:07:14.638Z,1.72
2023-01-27T22:12:23.830Z,1.84
2023-01-27T22:17:28.538Z,1.36
2023-01-27T22:22:33.162Z,1.39
2023-01-27T22:27:41.646Z,1.34
2023-01-27T22:32:46.976Z,1.57
2023-01-27T22:37:53.582Z,1.67
2023-01-27T22:43:00.258Z,1.27
2023-01-27T22:48:04.362Z,1.65
2023-01-27T22:53:08.395Z,1.72
2023-01-27T22:58:13.886Z,1.63
2023-01-27T23:03:18.533Z,1.58
2023-01-27T23:08:24.234Z,1.12
2023-01-27T23:13:30.284Z,1.35
2023-01-27T23:18:35.121Z,1.49
2023-01-27T23:23:41.183Z,1.43
2023-01-27T23:28:46.536Z,1.29
2023-01-27T23:33:51.174Z,1.54
2023-01-27T23:38:56.071Z,1.29
2023-01-27T23:44:02.100Z,1.04
2023-01-27T23:49:06.132Z,1.36
2023-01-27T23:54:11.201Z,1.24
2023-01-27T23:59:17.139Z,1.41
